createdAt,value
2022-09-30T00:00:46.984Z,9.95
2022-09-30T00:03:34.616Z,9.00
2022-09-30T00:06:08.531Z,14.43
2022-09-30T00:08:36.963Z,17.25
2022-09-30T00:11:07.486Z,16.25
2022-09-30T00:13:38.376Z,20.00
2022-09-30T00:16:07.834Z,11.20
2022-09-30T00:18:37.510Z,10.88
2022-09-30T00:21:05.536Z,13.13
2022-09-30T00:23:33.424Z,10.95
2022-09-30T00:26:03.032Z,15.30
2022-09-30T00:28:30.691Z,11.82
2022-09-30T00:30:59.598Z,12.70
2022-09-30T00:33:27.361Z,13.70
2022-09-30T00:35:56.355Z,11.30
2022-09-30T00:38:24.630Z,42.85
2022-09-30T00:40:52.290Z,11.82
2022-09-30T00:43:38.218Z,12.57
2022-09-30T00:46:06.536Z,10.88
2022-09-30T00:48:39.067Z,14.57
2022-09-30T00:51:08.678Z,11.55
2022-09-30T00:53:44.256Z,10.93
2022-09-30T00:56:17.295Z,14.43
2022-09-30T01:01:17.896Z,11.55
2022-09-30T01:03:48.322Z,15.18
2022-09-30T01:06:18.134Z,22.55
2022-09-30T01:08:46.772Z,17.00
2022-09-30T01:11:14.566Z,17.73
2022-09-30T01:13:44.417Z,15.82
2022-09-30T01:16:39.562Z,16.63
2022-09-30T01:19:46.101Z,19.17
2022-09-30T01:22:24.407Z,16.30
2022-09-30T01:25:26.734Z,14.52
2022-09-30T01:28:19.411Z,18.85
2022-09-30T01:31:03.873Z,14.88
2022-09-30T01:33:43.098Z,14.35
2022-09-30T01:36:28.800Z,16.48
2022-09-30T01:39:08.254Z,17.80
2022-09-30T01:41:42.542Z,14.93
2022-09-30T01:44:17.532Z,15.27
2022-09-30T01:46:55.480Z,16.20
2022-09-30T01:49:30.814Z,17.08
2022-09-30T01:52:04.427Z,17.98
2022-09-30T01:54:39.343Z,13.60
2022-09-30T01:57:11.680Z,15.38
2022-09-30T01:59:46.468Z,19.65
2022-09-30T02:02:20.234Z,13.13
2022-09-30T02:04:54.424Z,15.27
2022-09-30T02:07:26.821Z,14.57
2022-09-30T02:09:59.816Z,15.30
2022-09-30T02:12:32.421Z,16.85
2022-09-30T02:15:05.940Z,14.93
2022-09-30T02:17:39.634Z,17.02
2022-09-30T02:20:12.066Z,19.33
2022-09-30T02:22:43.765Z,16.55
2022-09-30T02:25:15.597Z,14.68
2022-09-30T02:27:48.486Z,14.32
2022-09-30T02:30:16.208Z,19.92
2022-09-30T02:32:49.533Z,13.30
2022-09-30T02:35:22.464Z,15.38
2022-09-30T02:37:55.001Z,16.23
2022-09-30T02:40:28.505Z,14.65
2022-09-30T02:42:56.890Z,15.20
2022-09-30T02:45:24.772Z,22.33
2022-09-30T02:48:09.302Z,18.45
2022-09-30T02:50:44.706Z,15.43
2022-09-30T02:53:23.815Z,19.25
2022-09-30T02:56:19.579Z,16.30
2022-09-30T02:58:48.162Z,16.50
2022-09-30T03:01:17.733Z,17.55
2022-09-30T03:03:50.175Z,20.83
2022-09-30T03:08:46.795Z,21.23
2022-09-30T03:11:18.132Z,17.65
2022-09-30T03:14:33.989Z,19.15
2022-09-30T03:17:25.588Z,21.02
2022-09-30T03:20:13.617Z,21.00
2022-09-30T03:22:58.699Z,20.48
2022-09-30T03:25:35.497Z,19.73
2022-09-30T03:28:17.380Z,23.33
2022-09-30T03:30:51.541Z,22.55
2022-09-30T03:33:25.179Z,20.52
2022-09-30T03:36:00.975Z,21.15
2022-09-30T03:38:39.852Z,20.83
2022-09-30T03:41:13.703Z,19.92
2022-09-30T03:43:46.851Z,23.30
2022-09-30T03:46:23.230Z,17.42
2022-09-30T03:48:55.181Z,16.95
2022-09-30T03:51:24.817Z,22.83
2022-09-30T03:53:52.563Z,26.63
2022-09-30T03:56:25.662Z,23.77
2022-09-30T03:58:56.222Z,17.70
2022-09-30T04:01:24.319Z,21.67
2022-09-30T04:03:52.632Z,23.90
2022-09-30T04:06:22.255Z,28.50
2022-09-30T04:08:51.477Z,23.05
2022-09-30T04:11:18.865Z,24.65
2022-09-30T04:13:46.729Z,22.70
2022-09-30T04:16:14.356Z,22.88
2022-09-30T04:18:43.902Z,22.48
2022-09-30T04:21:13.827Z,25.60
2022-09-30T04:23:42.267Z,22.60
2022-09-30T04:26:13.330Z,26.02
2022-09-30T04:31:25.971Z,26.95
2022-09-30T04:33:53.791Z,20.15
2022-09-30T04:36:21.199Z,21.95
2022-09-30T04:38:48.732Z,19.15
2022-09-30T04:41:17.799Z,20.80
2022-09-30T04:43:46.586Z,19.00
2022-09-30T04:46:13.954Z,21.65
2022-09-30T04:48:44.517Z,19.17
2022-09-30T04:51:12.137Z,21.05
2022-09-30T04:53:39.462Z,21.83
2022-09-30T04:56:07.623Z,21.60
2022-09-30T04:58:37.249Z,21.17
2022-09-30T05:01:06.924Z,21.98
2022-09-30T05:03:35.695Z,23.45
2022-09-30T05:06:03.802Z,22.48
2022-09-30T05:08:31.388Z,26.88
2022-09-30T05:11:01.129Z,25.88
2022-09-30T05:13:31.933Z,24.73
2022-09-30T05:16:01.843Z,27.30
2022-09-30T05:18:29.947Z,32.17
2022-09-30T05:20:58.199Z,28.08
2022-09-30T05:23:27.580Z,26.98
2022-09-30T05:25:55.102Z,21.05
2022-09-30T05:28:22.608Z,23.90
2022-09-30T05:30:56.750Z,22.70
2022-09-30T05:33:26.062Z,24.65
2022-09-30T05:35:53.742Z,27.40
2022-09-30T05:38:21.001Z,25.98
2022-09-30T05:40:48.419Z,24.98
2022-09-30T05:43:16.389Z,25.73
2022-09-30T05:45:52.274Z,29.98
2022-09-30T05:48:19.974Z,28.40
2022-09-30T05:50:48.889Z,28.98
2022-09-30T05:53:16.777Z,23.10
2022-09-30T05:55:46.790Z,30.58
2022-09-30T05:58:14.748Z,26.15
2022-09-30T06:00:43.136Z,25.23
2022-09-30T06:03:11.719Z,25.35
2022-09-30T06:05:39.037Z,25.83
2022-09-30T06:08:08.431Z,24.27
2022-09-30T06:10:37.184Z,24.80
2022-09-30T06:13:05.953Z,25.20
2022-09-30T06:15:33.313Z,23.65
2022-09-30T06:18:01.270Z,26.60
2022-09-30T06:20:28.659Z,23.20
2022-09-30T06:22:58.424Z,25.17
2022-09-30T06:25:27.850Z,25.35
2022-09-30T06:27:55.394Z,23.30
2022-09-30T06:30:23.208Z,25.23
2022-09-30T06:32:51.415Z,29.45
2022-09-30T06:35:18.820Z,26.33
2022-09-30T06:37:46.211Z,24.83
2022-09-30T06:40:14.257Z,25.63
2022-09-30T06:42:43.036Z,25.80
2022-09-30T06:45:12.322Z,25.30
2022-09-30T06:47:57.340Z,27.23
2022-09-30T06:50:26.901Z,27.88
2022-09-30T06:52:57.828Z,26.08
2022-09-30T06:55:25.294Z,26.35
2022-09-30T06:57:54.065Z,27.08
2022-09-30T07:00:22.549Z,25.35
2022-09-30T07:02:49.849Z,25.70
2022-09-30T07:05:17.847Z,25.05
2022-09-30T07:07:45.493Z,23.38
2022-09-30T07:10:12.776Z,26.55
2022-09-30T07:12:40.104Z,26.77
2022-09-30T07:15:13.616Z,28.63
2022-09-30T07:17:41.201Z,26.58
2022-09-30T07:20:09.049Z,26.77
2022-09-30T07:22:36.280Z,27.08
2022-09-30T07:25:04.911Z,24.75
2022-09-30T07:27:34.403Z,27.75
2022-09-30T07:30:09.734Z,25.88
2022-09-30T07:32:40.407Z,26.23
2022-09-30T07:35:08.190Z,22.73
2022-09-30T07:37:35.832Z,24.85
2022-09-30T07:40:05.208Z,23.73
2022-09-30T07:42:33.186Z,25.33
2022-09-30T07:45:00.389Z,23.85
2022-09-30T07:47:28.325Z,25.90
2022-09-30T07:49:57.045Z,28.00
2022-09-30T07:52:24.372Z,27.83
2022-09-30T07:54:52.110Z,28.83
2022-09-30T07:57:19.353Z,27.45
2022-09-30T07:59:46.613Z,27.17
2022-09-30T08:02:16.146Z,27.05
2022-09-30T08:04:44.914Z,28.10
2022-09-30T08:07:15.162Z,25.83
2022-09-30T08:09:42.884Z,27.40
2022-09-30T08:12:10.439Z,28.38
2022-09-30T08:14:37.854Z,29.80
2022-09-30T08:17:06.049Z,27.02
2022-09-30T08:19:33.619Z,25.10
2022-09-30T08:24:35.138Z,23.95
2022-09-30T08:27:02.476Z,25.20
2022-09-30T08:32:19.271Z,28.80
2022-09-30T08:34:46.924Z,28.17
2022-09-30T08:37:14.328Z,25.38
2022-09-30T08:39:43.976Z,28.50
2022-09-30T08:42:39.523Z,30.15
2022-09-30T08:45:19.994Z,28.40
2022-09-30T08:47:53.461Z,24.67
2022-09-30T08:50:29.834Z,26.67
2022-09-30T08:53:01.727Z,24.73
2022-09-30T08:55:38.924Z,25.02
2022-09-30T08:58:11.256Z,25.25
2022-09-30T09:00:42.837Z,26.95
2022-09-30T09:03:13.402Z,28.00
2022-09-30T09:05:52.749Z,31.08
2022-09-30T09:08:29.822Z,32.50
2022-09-30T09:11:03.782Z,26.98
2022-09-30T09:13:44.834Z,31.00
2022-09-30T09:16:21.597Z,28.40
2022-09-30T09:18:59.173Z,27.23
2022-09-30T09:21:38.372Z,27.55
2022-09-30T09:24:14.975Z,28.88
2022-09-30T09:26:44.836Z,30.88
2022-09-30T09:29:34.843Z,28.45
2022-09-30T09:32:03.001Z,32.90
2022-09-30T09:34:31.378Z,35.00
2022-09-30T09:37:10.088Z,32.88
2022-09-30T09:40:03.833Z,32.75
2022-09-30T09:42:59.480Z,33.08
2022-09-30T09:45:32.211Z,42.05
2022-09-30T09:47:59.480Z,36.97
2022-09-30T09:50:36.405Z,38.20
2022-09-30T09:53:20.226Z,40.40
2022-09-30T09:55:49.314Z,36.28
2022-09-30T09:58:18.405Z,36.33
2022-09-30T10:00:46.454Z,35.97
2022-09-30T10:03:16.812Z,37.92
2022-09-30T10:05:58.214Z,38.15
2022-09-30T10:08:26.106Z,34.58
2022-09-30T10:10:55.815Z,34.05
2022-09-30T10:13:26.406Z,32.83
2022-09-30T10:16:14.222Z,33.13
2022-09-30T10:18:45.834Z,32.67
2022-09-30T10:21:22.316Z,36.38
2022-09-30T10:23:50.601Z,34.53
2022-09-30T10:26:20.060Z,31.33
2022-09-30T10:28:51.023Z,32.83
2022-09-30T10:31:25.397Z,30.58
2022-09-30T10:34:01.190Z,34.05
2022-09-30T10:36:32.776Z,33.97
2022-09-30T10:39:05.719Z,26.35
2022-09-30T10:41:37.871Z,37.08
2022-09-30T10:44:14.432Z,34.42
2022-09-30T10:46:44.840Z,34.80
2022-09-30T10:49:25.047Z,30.55
2022-09-30T10:51:53.283Z,33.20
2022-09-30T10:54:49.107Z,33.85
2022-09-30T10:57:22.270Z,28.60
2022-09-30T10:59:55.015Z,29.38
2022-09-30T11:02:30.524Z,25.52
2022-09-30T11:05:05.459Z,25.75
2022-09-30T11:07:41.975Z,25.58
2022-09-30T11:10:25.853Z,23.42
2022-09-30T11:13:01.766Z,23.58
2022-09-30T11:15:39.504Z,22.95
2022-09-30T11:18:16.843Z,21.00
2022-09-30T11:20:48.651Z,19.27
2022-09-30T11:23:21.239Z,23.05
2022-09-30T11:28:37.838Z,21.88
2022-09-30T11:31:19.543Z,20.95
2022-09-30T11:34:02.649Z,19.33
2022-09-30T11:36:42.261Z,19.98
2022-09-30T11:39:41.687Z,19.45
2022-09-30T11:42:17.187Z,18.63
2022-09-30T11:44:46.760Z,17.95
2022-09-30T11:47:42.034Z,19.23
2022-09-30T11:50:40.046Z,20.70
2022-09-30T11:53:20.304Z,17.48
2022-09-30T11:56:02.166Z,17.85
2022-09-30T11:58:41.645Z,15.95
2022-09-30T12:01:17.022Z,14.43
2022-09-30T12:03:54.819Z,14.25
2022-09-30T12:06:33.507Z,9.35
2022-09-30T12:09:08.231Z,12.25
2022-09-30T12:11:43.624Z,13.80
2022-09-30T12:14:17.282Z,11.50
2022-09-30T12:16:47.832Z,11.88
2022-09-30T12:19:25.216Z,13.00
2022-09-30T12:21:59.033Z,10.52
2022-09-30T12:24:32.289Z,9.25
2022-09-30T12:27:00.398Z,10.25
2022-09-30T12:29:32.562Z,12.02
2022-09-30T12:32:27.127Z,14.00
2022-09-30T12:35:08.111Z,13.10
2022-09-30T12:37:48.370Z,12.60
2022-09-30T12:40:33.788Z,11.55
2022-09-30T12:43:21.071Z,11.77
2022-09-30T12:46:13.760Z,12.85
2022-09-30T12:48:45.939Z,12.68
2022-09-30T12:51:26.108Z,13.55
2022-09-30T12:53:59.058Z,14.75
2022-09-30T12:56:29.013Z,11.15
2022-09-30T12:58:57.728Z,12.55
2022-09-30T13:01:28.124Z,11.88
2022-09-30T13:04:18.217Z,12.65
2022-09-30T13:07:12.829Z,11.23
2022-09-30T13:09:59.425Z,11.05
2022-09-30T13:12:29.539Z,8.93
2022-09-30T13:15:23.686Z,11.35
2022-09-30T13:17:51.323Z,10.18
2022-09-30T13:20:50.743Z,12.05
2022-09-30T13:23:37.027Z,12.27
2022-09-30T13:26:25.771Z,14.38
2022-09-30T13:28:54.864Z,11.93
2022-09-30T13:31:23.782Z,10.35
2022-09-30T13:34:10.145Z,8.73
2022-09-30T13:36:42.273Z,9.98
2022-09-30T13:39:23.817Z,6.85
2022-09-30T13:42:06.892Z,8.32
2022-09-30T13:44:42.178Z,7.45
2022-09-30T13:47:19.434Z,10.23
2022-09-30T13:49:53.128Z,8.90
2022-09-30T13:52:25.002Z,8.10
2022-09-30T13:54:56.558Z,10.80
2022-09-30T13:57:28.663Z,9.88
2022-09-30T14:00:08.099Z,9.95
2022-09-30T14:02:53.416Z,8.93
2022-09-30T14:05:34.565Z,9.23
2022-09-30T14:08:30.820Z,10.73
2022-09-30T14:11:16.079Z,8.13
2022-09-30T14:13:55.926Z,7.75
2022-09-30T14:16:48.966Z,8.82
2022-09-30T14:19:34.345Z,8.68
2022-09-30T14:22:04.709Z,10.70
2022-09-30T14:24:37.878Z,7.68
2022-09-30T14:27:40.035Z,7.43
2022-09-30T14:30:13.791Z,7.70
2022-09-30T14:32:47.597Z,7.70
2022-09-30T14:35:20.004Z,10.07
2022-09-30T14:37:50.596Z,7.88
2022-09-30T14:40:27.319Z,7.10
2022-09-30T14:42:59.982Z,7.60
2022-09-30T14:45:31.673Z,6.53
2022-09-30T14:48:05.343Z,7.57
2022-09-30T14:50:37.737Z,9.25
2022-09-30T14:53:05.151Z,7.18
2022-09-30T14:55:35.743Z,7.00
2022-09-30T14:58:23.937Z,7.72
2022-09-30T15:01:02.100Z,7.75
2022-09-30T15:03:30.878Z,7.93
2022-09-30T15:05:58.553Z,8.60
2022-09-30T15:08:26.723Z,7.32
2022-09-30T15:13:42.733Z,7.65
2022-09-30T15:16:23.030Z,7.60
2022-09-30T15:18:50.914Z,8.40
2022-09-30T15:21:18.296Z,6.50
2022-09-30T15:23:50.169Z,6.72
2022-09-30T15:26:18.407Z,6.05
2022-09-30T15:28:47.806Z,6.85
2022-09-30T15:31:23.197Z,6.05
2022-09-30T15:34:01.918Z,5.18
2022-09-30T15:36:29.917Z,5.63
2022-09-30T15:38:57.923Z,6.88
2022-09-30T15:41:25.599Z,7.28
2022-09-30T15:43:54.568Z,6.20
2022-09-30T15:46:28.840Z,5.47
2022-09-30T15:48:58.538Z,6.13
2022-09-30T15:51:29.529Z,6.22
2022-09-30T15:53:58.148Z,5.75
2022-09-30T15:56:30.388Z,7.50
2022-09-30T15:59:01.386Z,7.03
2022-09-30T16:01:38.034Z,6.80
2022-09-30T16:04:10.077Z,5.15
2022-09-30T16:06:44.721Z,7.88
2022-09-30T16:09:28.154Z,5.47
2022-09-30T16:12:02.128Z,5.60
2022-09-30T16:14:33.690Z,4.95
2022-09-30T16:17:03.492Z,5.72
2022-09-30T16:19:32.445Z,4.93
2022-09-30T16:22:00.184Z,6.00
2022-09-30T16:24:45.006Z,4.93
2022-09-30T16:27:27.571Z,7.03
2022-09-30T16:29:56.571Z,4.97
2022-09-30T16:32:25.820Z,6.63
2022-09-30T16:34:53.228Z,5.85
2022-09-30T16:37:20.890Z,4.40
2022-09-30T16:39:49.206Z,5.18
2022-09-30T16:42:17.599Z,4.88
2022-09-30T16:44:45.376Z,5.45
2022-09-30T16:47:16.156Z,6.10
2022-09-30T16:49:45.497Z,7.85
2022-09-30T16:52:13.430Z,8.35
2022-09-30T16:54:41.898Z,5.72
2022-09-30T16:57:13.261Z,9.05
2022-09-30T16:59:40.537Z,5.45
2022-09-30T17:02:15.031Z,9.23
2022-09-30T17:04:42.904Z,7.80
2022-09-30T17:07:12.977Z,5.20
2022-09-30T17:09:41.617Z,8.20
2022-09-30T17:12:09.217Z,8.05
2022-09-30T17:14:36.754Z,9.88
2022-09-30T17:17:04.182Z,8.13
2022-09-30T17:19:33.385Z,9.63
2022-09-30T17:22:01.493Z,6.63
2022-09-30T17:24:28.984Z,8.07
2022-09-30T17:26:56.408Z,11.57
2022-09-30T17:29:32.734Z,10.07
2022-09-30T17:32:01.259Z,11.65
2022-09-30T17:34:47.093Z,10.38
2022-09-30T17:37:15.845Z,14.85
2022-09-30T17:39:43.495Z,11.25
2022-09-30T17:42:13.419Z,9.98
2022-09-30T17:44:40.587Z,14.75
2022-09-30T17:47:08.275Z,15.50
2022-09-30T17:49:36.124Z,16.45
2022-09-30T17:52:04.193Z,13.57
2022-09-30T17:54:33.677Z,14.38
2022-09-30T17:57:01.167Z,13.77
2022-09-30T17:59:28.773Z,15.38
2022-09-30T18:01:56.620Z,16.48
2022-09-30T18:04:24.550Z,15.02
2022-09-30T18:06:52.640Z,16.80
2022-09-30T18:09:20.514Z,19.33
2022-09-30T18:11:49.907Z,15.60
2022-09-30T18:14:17.826Z,18.50
2022-09-30T18:16:45.707Z,17.73
2022-09-30T18:19:16.272Z,18.70
2022-09-30T18:21:43.800Z,20.05
2022-09-30T18:24:14.007Z,18.98
2022-09-30T18:26:41.682Z,16.70
2022-09-30T18:29:10.530Z,22.25
2022-09-30T18:31:39.064Z,19.98
2022-09-30T18:34:09.029Z,20.02
2022-09-30T18:36:36.813Z,18.25
2022-09-30T18:39:04.882Z,20.70
2022-09-30T18:41:36.034Z,20.38
2022-09-30T18:44:04.756Z,21.20
2022-09-30T18:46:33.700Z,21.92
2022-09-30T18:49:00.905Z,21.17
2022-09-30T18:51:28.635Z,19.40
2022-09-30T18:53:57.769Z,23.35
2022-09-30T18:56:26.386Z,24.95
2022-09-30T18:58:54.117Z,22.52
2022-09-30T19:01:21.810Z,24.30
2022-09-30T19:03:50.532Z,26.48
2022-09-30T19:06:18.121Z,23.10
2022-09-30T19:08:45.694Z,19.95
2022-09-30T19:11:13.557Z,25.75
2022-09-30T19:13:41.844Z,24.33
2022-09-30T19:16:10.154Z,21.92
2022-09-30T19:18:38.344Z,27.05
2022-09-30T19:21:09.082Z,29.05
2022-09-30T19:23:36.643Z,27.83
2022-09-30T19:26:04.692Z,23.15
2022-09-30T19:28:33.087Z,34.22
2022-09-30T19:31:06.887Z,28.02
2022-09-30T19:33:37.345Z,26.80
2022-09-30T19:36:16.647Z,27.85
2022-09-30T19:38:46.052Z,30.70
2022-09-30T19:41:15.381Z,31.40
2022-09-30T19:43:43.256Z,28.90
2022-09-30T19:46:12.398Z,32.08
2022-09-30T19:48:39.685Z,30.48
2022-09-30T19:51:08.817Z,31.40
2022-09-30T19:53:41.870Z,35.03
2022-09-30T19:56:12.451Z,34.40
2022-09-30T19:58:41.537Z,33.72
2022-09-30T20:01:10.087Z,36.33
2022-09-30T20:03:37.748Z,33.90
2022-09-30T20:06:07.339Z,33.70
2022-09-30T20:08:36.192Z,33.90
2022-09-30T20:11:08.014Z,34.53
2022-09-30T20:13:36.659Z,33.72
2022-09-30T20:16:05.771Z,30.65
2022-09-30T20:18:34.161Z,39.40
2022-09-30T20:21:02.025Z,33.25
2022-09-30T20:23:29.310Z,40.00
2022-09-30T20:25:56.588Z,35.88
2022-09-30T20:28:25.893Z,38.42
2022-09-30T20:30:53.250Z,34.35
2022-09-30T20:33:21.452Z,36.55
2022-09-30T20:35:49.074Z,38.78
2022-09-30T20:38:18.299Z,36.22
2022-09-30T20:40:45.900Z,37.53
2022-09-30T20:43:13.820Z,37.58
2022-09-30T20:45:42.569Z,39.25
2022-09-30T20:48:09.906Z,37.58
2022-09-30T20:50:40.252Z,35.88
2022-09-30T20:53:09.908Z,36.67
2022-09-30T20:55:38.984Z,39.45
2022-09-30T20:58:08.190Z,39.10
2022-09-30T21:00:37.607Z,36.15
2022-09-30T21:03:08.820Z,36.40
2022-09-30T21:05:37.321Z,37.13
2022-09-30T21:08:05.289Z,39.00
2022-09-30T21:10:34.951Z,39.25
2022-09-30T21:13:07.628Z,37.42
2022-09-30T21:15:34.873Z,31.92
2022-09-30T21:18:02.302Z,32.08
2022-09-30T21:20:32.376Z,34.10
2022-09-30T21:22:59.711Z,33.85
2022-09-30T21:25:27.098Z,31.20
2022-09-30T21:27:55.059Z,27.58
2022-09-30T21:30:22.472Z,31.75
2022-09-30T21:32:49.857Z,32.65
2022-09-30T21:35:17.533Z,29.92
2022-09-30T21:37:48.709Z,33.38
2022-09-30T21:40:16.106Z,35.67
2022-09-30T21:42:44.228Z,33.63
2022-09-30T21:45:11.796Z,34.90
2022-09-30T21:47:39.138Z,32.67
2022-09-30T21:50:07.891Z,30.85
2022-09-30T21:52:35.162Z,35.75
2022-09-30T21:55:04.329Z,33.88
2022-09-30T21:57:32.111Z,32.20
2022-09-30T21:59:59.348Z,33.60
2022-09-30T22:02:27.251Z,32.03
2022-09-30T22:04:55.272Z,31.45
2022-09-30T22:07:22.547Z,32.15
2022-09-30T22:09:50.207Z,33.65
2022-09-30T22:12:19.348Z,35.70
2022-09-30T22:14:46.745Z,34.03
2022-09-30T22:17:14.029Z,39.17
2022-09-30T22:19:41.694Z,43.80
2022-09-30T22:22:10.050Z,32.53
2022-09-30T22:24:37.682Z,35.70
2022-09-30T22:27:05.526Z,31.38
2022-09-30T22:29:34.776Z,35.83
2022-09-30T22:32:02.341Z,34.70
2022-09-30T22:34:30.522Z,31.15
2022-09-30T22:36:57.910Z,31.98
2022-09-30T22:39:25.726Z,31.23
2022-09-30T22:41:55.323Z,32.00
2022-09-30T22:44:24.201Z,33.60
2022-09-30T22:46:53.501Z,28.95
2022-09-30T22:49:21.416Z,27.65
2022-09-30T22:51:50.555Z,31.75
2022-09-30T22:54:18.322Z,34.22
2022-09-30T22:56:46.243Z,37.40
2022-09-30T22:59:13.512Z,37.13
2022-09-30T23:01:40.872Z,37.75
2022-09-30T23:04:09.894Z,37.90
2022-09-30T23:06:37.269Z,32.85
2022-09-30T23:09:05.608Z,34.88
2022-09-30T23:11:34.064Z,31.90
2022-09-30T23:14:02.717Z,30.77
2022-09-30T23:16:30.183Z,32.90
2022-09-30T23:18:58.416Z,36.88
2022-09-30T23:21:27.288Z,36.47
2022-09-30T23:23:54.611Z,32.33
2022-09-30T23:26:23.358Z,34.45
2022-09-30T23:28:50.914Z,33.97
2022-09-30T23:31:18.812Z,34.75
2022-09-30T23:33:47.763Z,33.40
2022-09-30T23:36:17.317Z,36.35
2022-09-30T23:38:46.894Z,33.05
2022-09-30T23:41:14.798Z,37.25
2022-09-30T23:43:42.027Z,40.13
2022-09-30T23:46:09.342Z,35.60
2022-09-30T23:48:37.128Z,33.45
2022-09-30T23:51:05.858Z,32.97
2022-09-30T23:53:34.967Z,33.50
2022-09-30T23:56:06.959Z,37.53
2022-09-30T23:58:35.101Z,37.22
